sensor_id;sensor_type;location;lat;lon;timestamp;pressure;altitude;pressure_sealevel;temperature;humidity
62544;BME280;48597;49.030;1.822;2023-06-26T00:01:27;100977.22;;;26.84;43.52
62544;BME280;48597;49.030;1.822;2023-06-26T00:03:59;100980.91;;;26.85;44.04
62544;BME280;48597;49.030;1.822;2023-06-26T00:06:25;100982.22;;;26.84;43.61
62544;BME280;48597;49.030;1.822;2023-06-26T00:08:55;100988.00;;;26.84;43.77
62544;BME280;48597;49.030;1.822;2023-06-26T00:11:21;100995.88;;;26.83;43.60
62544;BME280;48597;49.030;1.822;2023-06-26T00:13:47;100985.59;;;26.82;43.52
62544;BME280;48597;49.030;1.822;2023-06-26T00:16:13;100993.47;;;26.82;43.46
62544;BME280;48597;49.030;1.822;2023-06-26T00:18:38;100991.88;;;26.81;43.40
62544;BME280;48597;49.030;1.822;2023-06-26T00:21:04;100991.88;;;26.81;43.31
62544;BME280;48597;49.030;1.822;2023-06-26T00:23:29;100996.06;;;26.80;43.68
62544;BME280;48597;49.030;1.822;2023-06-26T00:25:56;100997.34;;;26.79;43.45
62544;BME280;48597;49.030;1.822;2023-06-26T00:28:22;101000.25;;;26.79;43.50
62544;BME280;48597;49.030;1.822;2023-06-26T00:30:47;101008.91;;;26.79;43.27
62544;BME280;48597;49.030;1.822;2023-06-26T00:33:13;101005.72;;;26.77;43.43
62544;BME280;48597;49.030;1.822;2023-06-26T00:35:38;101013.09;;;26.78;43.25
62544;BME280;48597;49.030;1.822;2023-06-26T00:38:03;101016.00;;;26.78;43.39
62544;BME280;48597;49.030;1.822;2023-06-26T00:40:29;101013.59;;;26.76;43.53
62544;BME280;48597;49.030;1.822;2023-06-26T00:42:54;101015.69;;;26.76;43.06
62544;BME280;48597;49.030;1.822;2023-06-26T00:45:20;101017.78;;;26.75;43.26
62544;BME280;48597;49.030;1.822;2023-06-26T00:47:46;101029.34;;;26.75;43.09
62544;BME280;48597;49.030;1.822;2023-06-26T00:50:11;101033.56;;;26.74;43.03
62544;BME280;48597;49.030;1.822;2023-06-26T00:52:37;101034.84;;;26.73;43.05
62544;BME280;48597;49.030;1.822;2023-06-26T00:55:04;101038.53;;;26.74;42.96
62544;BME280;48597;49.030;1.822;2023-06-26T00:57:30;101028.28;;;26.73;43.05
62544;BME280;48597;49.030;1.822;2023-06-26T00:59:56;101037.75;;;26.73;43.22
62544;BME280;48597;49.030;1.822;2023-06-26T01:02:22;101031.97;;;26.73;42.92
62544;BME280;48597;49.030;1.822;2023-06-26T01:04:49;101048.50;;;26.73;43.14
62544;BME280;48597;49.030;1.822;2023-06-26T01:07:16;101041.13;;;26.72;43.01
62544;BME280;48597;49.030;1.822;2023-06-26T01:09:45;101046.13;;;26.71;42.93
62544;BME280;48597;49.030;1.822;2023-06-26T01:12:11;101044.19;;;26.68;43.17
62544;BME280;48597;49.030;1.822;2023-06-26T01:14:37;101047.09;;;26.68;43.13
62544;BME280;48597;49.030;1.822;2023-06-26T01:17:02;101052.88;;;26.68;43.01
62544;BME280;48597;49.030;1.822;2023-06-26T01:19:30;101040.50;;;26.67;42.95
62544;BME280;48597;49.030;1.822;2023-06-26T01:22:03;101044.69;;;26.66;42.84
62544;BME280;48597;49.030;1.822;2023-06-26T01:24:45;101052.06;;;26.67;42.79
62544;BME280;48597;49.030;1.822;2023-06-26T01:27:18;101053.38;;;26.66;42.85
62544;BME280;48597;49.030;1.822;2023-06-26T01:29:47;101051.78;;;26.65;42.87
62544;BME280;48597;49.030;1.822;2023-06-26T01:32:14;101051.78;;;26.65;42.85
62544;BME280;48597;49.030;1.822;2023-06-26T01:34:40;101047.28;;;26.64;43.11
62544;BME280;48597;49.030;1.822;2023-06-26T01:37:05;101056.44;;;26.63;42.88
62544;BME280;48597;49.030;1.822;2023-06-26T01:39:31;101051.47;;;26.63;42.84
62544;BME280;48597;49.030;1.822;2023-06-26T01:41:56;101059.34;;;26.63;42.72
62544;BME280;48597;49.030;1.822;2023-06-26T01:44:29;101061.44;;;26.62;42.69
62544;BME280;48597;49.030;1.822;2023-06-26T01:47:01;101061.44;;;26.62;42.60
62544;BME280;48597;49.030;1.822;2023-06-26T01:52:03;101057.47;;;26.60;42.70
62544;BME280;48597;49.030;1.822;2023-06-26T01:54:38;101067.72;;;26.61;42.44
62544;BME280;48597;49.030;1.822;2023-06-26T01:57:05;101072.72;;;26.60;42.39
62544;BME280;48597;49.030;1.822;2023-06-26T01:59:33;101073.19;;;26.59;42.52
62544;BME280;48597;49.030;1.822;2023-06-26T02:02:01;101076.09;;;26.59;42.63
62544;BME280;48597;49.030;1.822;2023-06-26T02:04:26;101076.59;;;26.57;42.41
62544;BME280;48597;49.030;1.822;2023-06-26T02:06:52;101076.59;;;26.57;42.32
62544;BME280;48597;49.030;1.822;2023-06-26T02:09:17;101083.66;;;26.56;42.49
62544;BME280;48597;49.030;1.822;2023-06-26T02:11:42;101088.63;;;26.56;42.38
62544;BME280;48597;49.030;1.822;2023-06-26T02:14:08;101084.44;;;26.57;42.16
62544;BME280;48597;49.030;1.822;2023-06-26T02:16:34;101092.31;;;26.56;42.41
62544;BME280;48597;49.030;1.822;2023-06-26T02:18:59;101090.72;;;26.55;42.51
62544;BME280;48597;49.030;1.822;2023-06-26T02:21:25;101090.72;;;26.55;42.40
62544;BME280;48597;49.030;1.822;2023-06-26T02:23:50;101093.31;;;26.53;42.41
62544;BME280;48597;49.030;1.822;2023-06-26T02:26:16;101096.19;;;26.53;42.11
62544;BME280;48597;49.030;1.822;2023-06-26T02:28:41;101094.59;;;26.52;42.12
62544;BME280;48597;49.030;1.822;2023-06-26T02:31:06;101090.09;;;26.51;42.11
62544;BME280;48597;49.030;1.822;2023-06-26T02:33:32;101093.00;;;26.51;41.99
62544;BME280;48597;49.030;1.822;2023-06-26T02:35:57;101097.19;;;26.50;42.19
62544;BME280;48597;49.030;1.822;2023-06-26T02:38:23;101087.69;;;26.50;42.22
62544;BME280;48597;49.030;1.822;2023-06-26T02:40:48;101092.69;;;26.49;42.08
62544;BME280;48597;49.030;1.822;2023-06-26T02:43:14;101096.91;;;26.48;41.98
62544;BME280;48597;49.030;1.822;2023-06-26T02:45:39;101096.09;;;26.48;41.80
62544;BME280;48597;49.030;1.822;2023-06-26T02:48:05;101098.19;;;26.47;42.04
62544;BME280;48597;49.030;1.822;2023-06-26T02:50:30;101094.50;;;26.47;42.15
62544;BME280;48597;49.030;1.822;2023-06-26T02:52:55;101092.09;;;26.45;42.16
62544;BME280;48597;49.030;1.822;2023-06-26T02:55:21;101086.31;;;26.45;41.86
62544;BME280;48597;49.030;1.822;2023-06-26T02:57:46;101097.88;;;26.45;41.90
62544;BME280;48597;49.030;1.822;2023-06-26T03:00:12;101100.44;;;26.43;42.09
62544;BME280;48597;49.030;1.822;2023-06-26T03:02:38;101100.44;;;26.43;42.03
62544;BME280;48597;49.030;1.822;2023-06-26T03:05:04;101108.31;;;26.43;41.96
62544;BME280;48597;49.030;1.822;2023-06-26T03:07:29;101098.03;;;26.42;42.11
62544;BME280;48597;49.030;1.822;2023-06-26T03:09:55;101109.59;;;26.42;42.05
62544;BME280;48597;49.030;1.822;2023-06-26T03:12:20;101113.31;;;26.42;42.00
62544;BME280;48597;49.030;1.822;2023-06-26T03:14:45;101114.59;;;26.41;41.76
62544;BME280;48597;49.030;1.822;2023-06-26T03:17:11;101117.97;;;26.40;41.86
62544;BME280;48597;49.030;1.822;2023-06-26T03:19:36;101120.84;;;26.40;41.98
62544;BME280;48597;49.030;1.822;2023-06-26T03:22:01;101113.00;;;26.40;41.68
62544;BME280;48597;49.030;1.822;2023-06-26T03:24:28;101127.13;;;26.38;41.75
62544;BME280;48597;49.030;1.822;2023-06-26T03:26:54;101130.81;;;26.39;41.90
62544;BME280;48597;49.030;1.822;2023-06-26T03:29:19;101130.00;;;26.38;41.69
62544;BME280;48597;49.030;1.822;2023-06-26T03:31:45;101129.22;;;26.38;41.89
62544;BME280;48597;49.030;1.822;2023-06-26T03:34:10;101127.63;;;26.37;41.77
62544;BME280;48597;49.030;1.822;2023-06-26T03:36:35;101131.31;;;26.37;41.75
62544;BME280;48597;49.030;1.822;2023-06-26T03:39:01;101135.47;;;26.36;41.88
62544;BME280;48597;49.030;1.822;2023-06-26T03:41:26;101130.22;;;26.35;41.72
62544;BME280;48597;49.030;1.822;2023-06-26T03:43:51;101132.31;;;26.34;41.79
62544;BME280;48597;49.030;1.822;2023-06-26T03:46:17;101129.41;;;26.34;41.63
62544;BME280;48597;49.030;1.822;2023-06-26T03:48:42;101137.78;;;26.32;41.62
62544;BME280;48597;49.030;1.822;2023-06-26T03:51:07;101142.75;;;26.31;41.73
62544;BME280;48597;49.030;1.822;2023-06-26T03:53:33;101139.06;;;26.31;41.73
62544;BME280;48597;49.030;1.822;2023-06-26T03:55:59;101153.50;;;26.31;41.53
62544;BME280;48597;49.030;1.822;2023-06-26T03:58:24;101156.88;;;26.29;41.81
62544;BME280;48597;49.030;1.822;2023-06-26T04:00:50;101160.59;;;26.30;41.70
62544;BME280;48597;49.030;1.822;2023-06-26T04:03:16;101161.88;;;26.29;41.57
62544;BME280;48597;49.030;1.822;2023-06-26T04:05:41;101161.88;;;26.29;41.47
62544;BME280;48597;49.030;1.822;2023-06-26T04:08:07;101170.19;;;26.27;41.65
62544;BME280;48597;49.030;1.822;2023-06-26T04:10:33;101173.06;;;26.27;41.58
62544;BME280;48597;49.030;1.822;2023-06-26T04:12:58;101175.97;;;26.27;41.66
62544;BME280;48597;49.030;1.822;2023-06-26T04:15:24;101171.47;;;26.26;41.51
62544;BME280;48597;49.030;1.822;2023-06-26T04:17:49;101180.16;;;26.26;41.62
62544;BME280;48597;49.030;1.822;2023-06-26T04:20:14;101180.63;;;26.24;41.65
62544;BME280;48597;49.030;1.822;2023-06-26T04:22:40;101181.44;;;26.25;41.55
62544;BME280;48597;49.030;1.822;2023-06-26T04:25:05;101190.59;;;26.23;41.37
62544;BME280;48597;49.030;1.822;2023-06-26T04:27:31;101183.53;;;26.24;41.61
62544;BME280;48597;49.030;1.822;2023-06-26T04:29:56;101194.00;;;26.22;41.47
62544;BME280;48597;49.030;1.822;2023-06-26T04:32:21;101191.91;;;26.22;41.59
62544;BME280;48597;49.030;1.822;2023-06-26T04:34:47;101201.84;;;26.21;41.32
62544;BME280;48597;49.030;1.822;2023-06-26T04:37:13;101198.97;;;26.21;41.35
62544;BME280;48597;49.030;1.822;2023-06-26T04:39:42;101201.84;;;26.21;41.31
62544;BME280;48597;49.030;1.822;2023-06-26T04:42:07;101207.63;;;26.21;41.68
62544;BME280;48597;49.030;1.822;2023-06-26T04:44:33;101209.72;;;26.21;41.35
62544;BME280;48597;49.030;1.822;2023-06-26T04:46:59;101207.31;;;26.19;41.38
62544;BME280;48597;49.030;1.822;2023-06-26T04:49:24;101200.75;;;26.19;41.69
62544;BME280;48597;49.030;1.822;2023-06-26T04:51:50;101210.69;;;26.18;41.66
62544;BME280;48597;49.030;1.822;2023-06-26T04:54:16;101207.81;;;26.18;41.48
62544;BME280;48597;49.030;1.822;2023-06-26T04:56:41;101209.88;;;26.17;41.66
62544;BME280;48597;49.030;1.822;2023-06-26T04:59:07;101215.66;;;26.17;41.46
62544;BME280;48597;49.030;1.822;2023-06-26T05:01:32;101221.44;;;26.17;41.50
62544;BME280;48597;49.030;1.822;2023-06-26T05:04:01;101223.53;;;26.17;41.29
62544;BME280;48597;49.030;1.822;2023-06-26T05:06:27;101220.66;;;26.17;41.64
62544;BME280;48597;49.030;1.822;2023-06-26T05:08:52;101221.63;;;26.14;41.35
62544;BME280;48597;49.030;1.822;2023-06-26T05:11:18;101222.41;;;26.14;41.36
62544;BME280;48597;49.030;1.822;2023-06-26T05:13:43;101220.31;;;26.15;41.34
62544;BME280;48597;49.030;1.822;2023-06-26T05:16:09;101221.63;;;26.14;41.49
62544;BME280;48597;49.030;1.822;2023-06-26T05:18:35;101225.00;;;26.12;41.44
62544;BME280;48597;49.030;1.822;2023-06-26T05:21:01;101225.78;;;26.13;41.37
62544;BME280;48597;49.030;1.822;2023-06-26T05:23:30;101217.91;;;26.13;41.34
62544;BME280;48597;49.030;1.822;2023-06-26T05:25:56;101238.63;;;26.12;41.56
62544;BME280;48597;49.030;1.822;2023-06-26T05:28:22;101242.81;;;26.11;41.30
62544;BME280;48597;49.030;1.822;2023-06-26T05:30:52;101239.91;;;26.11;41.43
62544;BME280;48597;49.030;1.822;2023-06-26T05:33:18;101242.00;;;26.10;41.45
62544;BME280;48597;49.030;1.822;2023-06-26T05:35:48;101238.31;;;26.10;41.56
62544;BME280;48597;49.030;1.822;2023-06-26T05:38:15;101243.31;;;26.09;41.62
62544;BME280;48597;49.030;1.822;2023-06-26T05:40:41;101225.97;;;26.09;41.32
62544;BME280;48597;49.030;1.822;2023-06-26T05:43:06;101230.16;;;26.08;41.38
62544;BME280;48597;49.030;1.822;2023-06-26T05:45:32;101231.91;;;26.06;41.38
62544;BME280;48597;49.030;1.822;2023-06-26T05:47:58;101228.56;;;26.07;41.53
62544;BME280;48597;49.030;1.822;2023-06-26T05:50:23;101233.53;;;26.07;41.51
62544;BME280;48597;49.030;1.822;2023-06-26T05:52:49;101233.53;;;26.07;41.56
62544;BME280;48597;49.030;1.822;2023-06-26T05:55:15;101235.28;;;26.04;41.57
62544;BME280;48597;49.030;1.822;2023-06-26T05:57:41;101233.69;;;26.03;41.49
62544;BME280;48597;49.030;1.822;2023-06-26T06:00:07;101231.13;;;26.05;41.48
62544;BME280;48597;49.030;1.822;2023-06-26T06:02:36;101239.78;;;26.05;41.56
62544;BME280;48597;49.030;1.822;2023-06-26T06:05:02;101246.84;;;26.04;41.51
62544;BME280;48597;49.030;1.822;2023-06-26T06:07:28;101239.00;;;26.05;41.26
62544;BME280;48597;49.030;1.822;2023-06-26T06:09:54;101255.53;;;26.04;41.48
62544;BME280;48597;49.030;1.822;2023-06-26T06:12:20;101261.28;;;26.04;41.52
62544;BME280;48597;49.030;1.822;2023-06-26T06:14:45;101256.81;;;26.03;41.42
62544;BME280;48597;49.030;1.822;2023-06-26T06:17:11;101251.50;;;26.02;41.77
62544;BME280;48597;49.030;1.822;2023-06-26T06:19:36;101266.75;;;26.02;41.67
62544;BME280;48597;49.030;1.822;2023-06-26T06:22:01;101275.91;;;26.01;41.68
62544;BME280;48597;49.030;1.822;2023-06-26T06:24:27;101275.09;;;26.00;41.70
62544;BME280;48597;49.030;1.822;2023-06-26T06:26:52;101270.13;;;26.01;41.84
62544;BME280;48597;49.030;1.822;2023-06-26T06:29:18;101278.78;;;26.01;41.79
62544;BME280;48597;49.030;1.822;2023-06-26T06:31:44;101280.88;;;26.00;41.74
62544;BME280;48597;49.030;1.822;2023-06-26T06:34:10;101276.69;;;26.01;41.67
62544;BME280;48597;49.030;1.822;2023-06-26T06:36:35;101280.06;;;25.99;41.59
62544;BME280;48597;49.030;1.822;2023-06-26T06:39:00;101280.88;;;26.00;41.62
62544;BME280;48597;49.030;1.822;2023-06-26T06:41:26;101282.97;;;25.99;41.55
62544;BME280;48597;49.030;1.822;2023-06-26T06:43:51;101282.97;;;25.99;41.61
62544;BME280;48597;49.030;1.822;2023-06-26T06:46:17;101299.00;;;26.01;41.54
62544;BME280;48597;49.030;1.822;2023-06-26T06:48:42;101285.84;;;25.99;41.55
62544;BME280;48597;49.030;1.822;2023-06-26T06:51:07;101293.72;;;25.99;41.70
62544;BME280;48597;49.030;1.822;2023-06-26T06:53:33;101285.84;;;25.99;41.91
62544;BME280;48597;49.030;1.822;2023-06-26T06:55:58;101291.63;;;25.99;41.65
62544;BME280;48597;49.030;1.822;2023-06-26T06:58:24;101285.84;;;25.99;41.63
62544;BME280;48597;49.030;1.822;2023-06-26T07:00:49;101282.97;;;25.99;41.71
62544;BME280;48597;49.030;1.822;2023-06-26T07:03:16;101301.91;;;26.01;41.60
62544;BME280;48597;49.030;1.822;2023-06-26T07:05:41;101287.44;;;26.01;41.55
62544;BME280;48597;49.030;1.822;2023-06-26T07:08:07;101290.81;;;25.99;41.75
62544;BME280;48597;49.030;1.822;2023-06-26T07:10:33;101297.41;;;25.99;41.67
62544;BME280;48597;49.030;1.822;2023-06-26T07:12:59;101299.50;;;25.99;41.63
62544;BME280;48597;49.030;1.822;2023-06-26T07:15:24;101296.13;;;26.01;41.77
62544;BME280;48597;49.030;1.822;2023-06-26T07:17:49;101300.28;;;25.99;41.65
62544;BME280;48597;49.030;1.822;2023-06-26T07:20:15;101302.38;;;25.99;41.75
62544;BME280;48597;49.030;1.822;2023-06-26T07:22:41;101305.28;;;25.99;41.31
62544;BME280;48597;49.030;1.822;2023-06-26T07:25:07;101300.28;;;25.99;41.20
62544;BME280;48597;49.030;1.822;2023-06-26T07:27:37;101302.38;;;25.99;41.39
62544;BME280;48597;49.030;1.822;2023-06-26T07:30:03;101306.06;;;25.99;41.65
62544;BME280;48597;49.030;1.822;2023-06-26T07:32:28;101311.03;;;25.99;41.60
62544;BME280;48597;49.030;1.822;2023-06-26T07:34:54;101313.13;;;25.98;41.28
62544;BME280;48597;49.030;1.822;2023-06-26T07:37:19;101314.41;;;25.97;41.46
62544;BME280;48597;49.030;1.822;2023-06-26T07:39:45;101321.78;;;25.98;41.63
62544;BME280;48597;49.030;1.822;2023-06-26T07:42:10;101318.91;;;25.98;41.48
62544;BME280;48597;49.030;1.822;2023-06-26T07:44:36;101332.06;;;25.99;41.67
62544;BME280;48597;49.030;1.822;2023-06-26T07:47:01;101329.19;;;25.99;41.33
62544;BME280;48597;49.030;1.822;2023-06-26T07:49:27;101327.56;;;25.98;41.60
62544;BME280;48597;49.030;1.822;2023-06-26T07:51:52;101325.50;;;25.99;41.50
62544;BME280;48597;49.030;1.822;2023-06-26T07:54:18;101337.84;;;25.99;41.52
62544;BME280;48597;49.030;1.822;2023-06-26T07:57:00;101331.28;;;25.99;41.44
62544;BME280;48597;49.030;1.822;2023-06-26T07:59:28;101343.63;;;25.99;41.66
62544;BME280;48597;49.030;1.822;2023-06-26T08:01:56;101348.13;;;26.01;41.54
62544;BME280;48597;49.030;1.822;2023-06-26T08:04:23;101339.44;;;26.01;41.43
62544;BME280;48597;49.030;1.822;2023-06-26T08:06:51;101351.00;;;26.01;41.70
62544;BME280;48597;49.030;1.822;2023-06-26T08:09:18;101339.44;;;26.01;41.57
62544;BME280;48597;49.030;1.822;2023-06-26T08:11:44;101342.34;;;26.01;41.52
62544;BME280;48597;49.030;1.822;2023-06-26T08:14:09;101346.03;;;26.01;41.65
62544;BME280;48597;49.030;1.822;2023-06-26T08:16:37;101345.22;;;26.01;41.83
62544;BME280;48597;49.030;1.822;2023-06-26T08:19:02;101338.16;;;26.02;41.35
62544;BME280;48597;49.030;1.822;2023-06-26T08:21:28;101343.94;;;26.02;41.67
62544;BME280;48597;49.030;1.822;2023-06-26T08:23:54;101349.72;;;26.02;41.60
62544;BME280;48597;49.030;1.822;2023-06-26T08:26:19;101346.84;;;26.02;41.79
62544;BME280;48597;49.030;1.822;2023-06-26T08:28:45;101349.25;;;26.03;41.98
62544;BME280;48597;49.030;1.822;2023-06-26T08:31:10;101343.47;;;26.03;41.91
62544;BME280;48597;49.030;1.822;2023-06-26T08:33:35;101347.97;;;26.04;42.33
62544;BME280;48597;49.030;1.822;2023-06-26T08:36:01;101334.31;;;26.05;42.68
62544;BME280;48597;49.030;1.822;2023-06-26T08:38:27;101348.78;;;26.05;42.48
62544;BME280;48597;49.030;1.822;2023-06-26T08:40:52;101349.56;;;26.05;42.56
62544;BME280;48597;49.030;1.822;2023-06-26T08:43:17;101353.25;;;26.06;42.84
62544;BME280;48597;49.030;1.822;2023-06-26T08:45:43;101348.28;;;26.06;43.33
62544;BME280;48597;49.030;1.822;2023-06-26T08:48:09;101348.28;;;26.06;43.64
62544;BME280;48597;49.030;1.822;2023-06-26T08:50:36;101359.84;;;26.06;43.74
62544;BME280;48597;49.030;1.822;2023-06-26T08:55:54;101356.16;;;26.06;44.26
62544;BME280;48597;49.030;1.822;2023-06-26T08:58:22;101360.66;;;26.07;44.01
62544;BME280;48597;49.030;1.822;2023-06-26T09:00:48;101354.88;;;26.07;44.19
62544;BME280;48597;49.030;1.822;2023-06-26T09:03:14;101353.25;;;26.06;44.13
62544;BME280;48597;49.030;1.822;2023-06-26T09:05:40;101353.59;;;26.08;44.32
62544;BME280;48597;49.030;1.822;2023-06-26T09:08:07;101345.72;;;26.08;44.30
62544;BME280;48597;49.030;1.822;2023-06-26T09:10:32;101340.41;;;26.07;43.97
62544;BME280;48597;49.030;1.822;2023-06-26T09:12:58;101346.19;;;26.07;44.33
62544;BME280;48597;49.030;1.822;2023-06-26T09:15:24;101344.13;;;26.07;44.51
62544;BME280;48597;49.030;1.822;2023-06-26T09:17:50;101354.38;;;26.08;44.37
62544;BME280;48597;49.030;1.822;2023-06-26T09:20:15;101342.03;;;26.08;44.31
62544;BME280;48597;49.030;1.822;2023-06-26T09:22:42;101344.91;;;26.08;44.25
62544;BME280;48597;49.030;1.822;2023-06-26T09:25:09;101355.19;;;26.09;44.17
62544;BME280;48597;49.030;1.822;2023-06-26T09:27:35;101356.47;;;26.08;44.57
62544;BME280;48597;49.030;1.822;2023-06-26T09:30:05;101353.59;;;26.08;44.09
62544;BME280;48597;49.030;1.822;2023-06-26T09:32:34;101349.41;;;26.09;44.15
62544;BME280;48597;49.030;1.822;2023-06-26T09:35:03;101354.38;;;26.08;44.47
62544;BME280;48597;49.030;1.822;2023-06-26T09:37:28;101358.88;;;26.09;44.07
62544;BME280;48597;49.030;1.822;2023-06-26T09:39:54;101364.66;;;26.09;44.05
62544;BME280;48597;49.030;1.822;2023-06-26T09:42:19;101375.41;;;26.09;43.82
62544;BME280;48597;49.030;1.822;2023-06-26T09:44:46;101376.22;;;26.09;43.84
62544;BME280;48597;49.030;1.822;2023-06-26T09:47:12;101372.53;;;26.09;43.80
62544;BME280;48597;49.030;1.822;2023-06-26T09:49:41;101374.91;;;26.10;43.94
62544;BME280;48597;49.030;1.822;2023-06-26T09:52:08;101375.72;;;26.11;44.14
62544;BME280;48597;49.030;1.822;2023-06-26T09:54:33;101371.22;;;26.10;43.75
62544;BME280;48597;49.030;1.822;2023-06-26T09:57:09;101371.53;;;26.12;43.66
62544;BME280;48597;49.030;1.822;2023-06-26T09:59:35;101367.56;;;26.09;43.51
62544;BME280;48597;49.030;1.822;2023-06-26T10:02:01;101372.03;;;26.10;43.63
62544;BME280;48597;49.030;1.822;2023-06-26T10:04:27;101377.78;;;26.10;43.98
62544;BME280;48597;49.030;1.822;2023-06-26T10:06:55;101378.59;;;26.11;44.04
62544;BME280;48597;49.030;1.822;2023-06-26T10:09:22;101373.63;;;26.11;43.90
62544;BME280;48597;49.030;1.822;2023-06-26T10:12:00;101370.72;;;26.11;43.98
62544;BME280;48597;49.030;1.822;2023-06-26T10:14:33;101378.13;;;26.12;44.14
62544;BME280;48597;49.030;1.822;2023-06-26T10:17:01;101385.19;;;26.11;44.01
62544;BME280;48597;49.030;1.822;2023-06-26T10:19:29;101391.75;;;26.12;44.28
62544;BME280;48597;49.030;1.822;2023-06-26T10:21:58;101381.00;;;26.12;44.11
62544;BME280;48597;49.030;1.822;2023-06-26T10:24:24;101386.31;;;26.14;44.03
62544;BME280;48597;49.030;1.822;2023-06-26T10:27:16;101383.41;;;26.14;43.74
62544;BME280;48597;49.030;1.822;2023-06-26T10:29:47;101370.25;;;26.13;43.85
62544;BME280;48597;49.030;1.822;2023-06-26T10:32:14;101373.94;;;26.13;43.81
62544;BME280;48597;49.030;1.822;2023-06-26T10:34:40;101380.53;;;26.14;43.65
62544;BME280;48597;49.030;1.822;2023-06-26T10:37:06;101382.13;;;26.15;43.44
62544;BME280;48597;49.030;1.822;2023-06-26T10:39:51;101388.72;;;26.15;43.51
62544;BME280;48597;49.030;1.822;2023-06-26T10:42:18;101385.84;;;26.15;43.25
62544;BME280;48597;49.030;1.822;2023-06-26T10:44:46;101386.63;;;26.16;42.85
62544;BME280;48597;49.030;1.822;2023-06-26T10:50:40;101382.13;;;26.15;42.82
62544;BME280;48597;49.030;1.822;2023-06-26T10:53:22;101382.47;;;26.17;42.64
62544;BME280;48597;49.030;1.822;2023-06-26T10:56:00;101391.94;;;26.17;42.40
62544;BME280;48597;49.030;1.822;2023-06-26T10:58:47;101388.25;;;26.17;42.75
62544;BME280;48597;49.030;1.822;2023-06-26T11:01:26;101394.03;;;26.17;42.44
62544;BME280;48597;49.030;1.822;2023-06-26T11:04:03;101389.03;;;26.17;42.21
62544;BME280;48597;49.030;1.822;2023-06-26T11:06:29;101391.13;;;26.17;41.92
62544;BME280;48597;49.030;1.822;2023-06-26T11:09:17;101389.84;;;26.18;41.95
62544;BME280;48597;49.030;1.822;2023-06-26T11:14:22;101391.44;;;26.19;42.07
62544;BME280;48597;49.030;1.822;2023-06-26T11:16:48;101397.22;;;26.19;42.08
62544;BME280;48597;49.030;1.822;2023-06-26T11:19:16;101388.56;;;26.19;42.01
62544;BME280;48597;49.030;1.822;2023-06-26T11:21:42;101381.50;;;26.20;42.17
62544;BME280;48597;49.030;1.822;2023-06-26T11:24:08;101384.38;;;26.20;42.00
62544;BME280;48597;49.030;1.822;2023-06-26T11:26:41;101380.22;;;26.21;42.16
62544;BME280;48597;49.030;1.822;2023-06-26T11:29:07;101374.91;;;26.19;42.29
62544;BME280;48597;49.030;1.822;2023-06-26T11:31:35;101388.88;;;26.21;42.39
62544;BME280;48597;49.030;1.822;2023-06-26T11:34:11;101399.16;;;26.22;42.15
62544;BME280;48597;49.030;1.822;2023-06-26T11:36:38;101391.78;;;26.21;42.28
62544;BME280;48597;49.030;1.822;2023-06-26T11:39:06;101368.94;;;26.23;42.25
62544;BME280;48597;49.030;1.822;2023-06-26T11:41:34;101387.91;;;26.24;42.21
62544;BME280;48597;49.030;1.822;2023-06-26T11:44:07;101397.84;;;26.23;42.58
62544;BME280;48597;49.030;1.822;2023-06-26T11:46:34;101396.28;;;26.22;42.74
62544;BME280;48597;49.030;1.822;2023-06-26T11:49:05;101403.63;;;26.23;42.98
62544;BME280;48597;49.030;1.822;2023-06-26T11:51:31;101402.53;;;26.20;42.71
62544;BME280;48597;49.030;1.822;2023-06-26T11:53:56;101393.06;;;26.20;42.76
62544;BME280;48597;49.030;1.822;2023-06-26T11:56:22;101387.59;;;26.22;42.58
62544;BME280;48597;49.030;1.822;2023-06-26T11:59:07;101392.88;;;26.23;42.77
62544;BME280;48597;49.030;1.822;2023-06-26T12:01:41;101402.34;;;26.24;42.76
62544;BME280;48597;49.030;1.822;2023-06-26T12:04:09;101387.91;;;26.24;42.83
62544;BME280;48597;49.030;1.822;2023-06-26T12:06:36;101400.25;;;26.24;42.60
62544;BME280;48597;49.030;1.822;2023-06-26T12:09:04;101401.88;;;26.25;43.00
62544;BME280;48597;49.030;1.822;2023-06-26T12:11:31;101404.75;;;26.25;42.98
62544;BME280;48597;49.030;1.822;2023-06-26T12:13:58;101406.84;;;26.25;42.96
62544;BME280;48597;49.030;1.822;2023-06-26T12:16:24;101406.38;;;26.26;43.25
62544;BME280;48597;49.030;1.822;2023-06-26T12:18:50;101408.81;;;26.28;43.38
62544;BME280;48597;49.030;1.822;2023-06-26T12:24:07;101392.28;;;26.28;43.09
62544;BME280;48597;49.030;1.822;2023-06-26T12:26:33;101395.16;;;26.28;43.12
62544;BME280;48597;49.030;1.822;2023-06-26T12:29:04;101396.75;;;26.29;42.89
62544;BME280;48597;49.030;1.822;2023-06-26T12:31:30;101395.97;;;26.29;43.24
62544;BME280;48597;49.030;1.822;2023-06-26T12:33:56;101390.19;;;26.29;42.87
62544;BME280;48597;49.030;1.822;2023-06-26T12:36:22;101396.75;;;26.29;42.82
62544;BME280;48597;49.030;1.822;2023-06-26T12:38:49;101386.00;;;26.30;43.18
62544;BME280;48597;49.030;1.822;2023-06-26T12:41:15;101394.69;;;26.30;43.25
62544;BME280;48597;49.030;1.822;2023-06-26T12:43:41;101394.19;;;26.31;43.09
62544;BME280;48597;49.030;1.822;2023-06-26T12:46:07;101399.97;;;26.31;43.18
62544;BME280;48597;49.030;1.822;2023-06-26T12:48:40;101409.44;;;26.32;43.01
62544;BME280;48597;49.030;1.822;2023-06-26T12:51:12;101397.09;;;26.31;42.99
62544;BME280;48597;49.030;1.822;2023-06-26T12:53:38;101395.81;;;26.32;43.18
62544;BME280;48597;49.030;1.822;2023-06-26T12:56:08;101395.31;;;26.34;43.20
62544;BME280;48597;49.030;1.822;2023-06-26T12:58:34;101396.59;;;26.33;43.10
62544;BME280;48597;49.030;1.822;2023-06-26T13:01:03;101406.88;;;26.34;43.23
62544;BME280;48597;49.030;1.822;2023-06-26T13:03:29;101406.38;;;26.36;42.99